Time;durP1;ratioP1;P1;durP2;ratioP2;P2;SDS_P1;SDS_P2;PMS_P1;PMS_P2;Temp;Humidity;BMP_temperature;BMP_pressure;BME280_temperature;BME280_humidity;BME280_pressure;Samples;Min_cycle;Max_cycle;Signal;HPM_P1;HPM_P2
2022/06/22 00:01:43;;;;;;;60.33;3.60;;;;;;;;;;5055726;28;20480;-84
2022/06/22 00:04:15;;;;;;;59.97;3.90;;;;;;;;;;5056260;28;20452;-83
2022/06/22 00:06:45;;;;;;;62.37;3.77;;;;;;;;;;5056736;28;20985;-84
2022/06/22 00:09:22;;;;;;;60.00;4.47;;;;;;;;;;5057230;28;20448;-83
2022/06/22 00:11:50;;;;;;;60.57;4.40;;;;;;;;;;5056586;28;20456;-83
2022/06/22 00:14:18;;;;;;;60.90;3.90;;;;;;;;;;5054369;28;20491;-84
2022/06/22 00:16:49;;;;;;;61.07;4.40;;;;;;;;;;5056032;28;20491;-84
2022/06/22 00:19:23;;;;;;;60.50;4.17;;;;;;;;;;5055959;28;20973;-84
2022/06/22 00:21:50;;;;;;;59.23;4.00;;;;;;;;;;5055929;28;20457;-84
2022/06/22 00:24:35;;;;;;;60.90;4.77;;;;;;;;;;5056561;28;20460;-84
2022/06/22 00:27:08;;;;;;;62.10;4.83;;;;;;;;;;5056778;28;20425;-84
2022/06/22 00:29:37;;;;;;;60.20;4.47;;;;;;;;;;5057452;28;20969;-84
2022/06/22 00:32:14;;;;;;;60.80;4.37;;;;;;;;;;5056330;28;20514;-83
2022/06/22 00:34:42;;;;;;;61.10;5.03;;;;;;;;;;5057197;28;20443;-83
2022/06/22 00:37:15;;;;;;;59.97;4.07;;;;;;;;;;5056883;28;21065;-83
2022/06/22 00:39:44;;;;;;;63.10;4.47;;;;;;;;;;5057415;28;20946;-83
2022/06/22 00:42:24;;;;;;;60.17;4.40;;;;;;;;;;5056575;28;20441;-84
2022/06/22 00:44:53;;;;;;;60.53;4.27;;;;;;;;;;5056847;28;20443;-84
2022/06/22 00:47:25;;;;;;;61.77;3.87;;;;;;;;;;5055565;28;20445;-83
2022/06/22 00:49:54;;;;;;;60.10;3.70;;;;;;;;;;5057934;28;20427;-83
2022/06/22 00:52:25;;;;;;;60.13;4.10;;;;;;;;;;5057007;28;20866;-84
2022/06/22 00:54:54;;;;;;;60.07;4.27;;;;;;;;;;5056712;28;20501;-83
2022/06/22 00:57:23;;;;;;;60.63;4.30;;;;;;;;;;5056847;28;20904;-83
2022/06/22 00:59:53;;;;;;;61.00;4.37;;;;;;;;;;5057117;28;20495;-84
2022/06/22 01:02:25;;;;;;;60.57;4.23;;;;;;;;;;5057015;28;20498;-84
2022/06/22 01:04:54;;;;;;;65.03;4.40;;;;;;;;;;5056709;28;20478;-84
2022/06/22 01:07:25;;;;;;;59.87;4.27;;;;;;;;;;5056306;28;20439;-84
2022/06/22 01:09:58;;;;;;;59.80;4.40;;;;;;;;;;5056457;28;20436;-83
2022/06/22 01:12:31;;;;;;;59.90;4.63;;;;;;;;;;5057122;28;20425;-83
2022/06/22 01:15:05;;;;;;;61.90;4.60;;;;;;;;;;5056454;28;20446;-83
2022/06/22 01:17:36;;;;;;;59.73;3.83;;;;;;;;;;5055516;28;20912;-84
2022/06/22 01:20:07;;;;;;;60.20;4.57;;;;;;;;;;5055680;28;20851;-84
2022/06/22 01:22:45;;;;;;;60.07;4.33;;;;;;;;;;5056089;28;20465;-84
2022/06/22 01:25:25;;;;;;;61.60;4.40;;;;;;;;;;5058939;28;20446;-83
2022/06/22 01:27:53;;;;;;;59.90;4.70;;;;;;;;;;5058646;28;20424;-83
2022/06/22 01:30:23;;;;;;;60.37;4.70;;;;;;;;;;5058142;28;20517;-83
2022/06/22 01:32:51;;;;;;;61.20;3.93;;;;;;;;;;5057941;28;20440;-83
2022/06/22 01:35:19;;;;;;;61.00;4.70;;;;;;;;;;5057471;28;20446;-83
2022/06/22 01:37:47;;;;;;;60.50;4.40;;;;;;;;;;5056226;28;20492;-84
2022/06/22 01:40:15;;;;;;;60.70;4.67;;;;;;;;;;5057657;28;20472;-84
2022/06/22 01:42:46;;;;;;;59.90;4.00;;;;;;;;;;5057337;28;20497;-83
2022/06/22 01:45:17;;;;;;;60.77;4.23;;;;;;;;;;5058005;28;20451;-84
2022/06/22 01:47:49;;;;;;;60.40;4.10;;;;;;;;;;5057833;28;20427;-84
2022/06/22 01:50:19;;;;;;;62.37;4.40;;;;;;;;;;5056604;28;20996;-83
2022/06/22 01:53:12;;;;;;;59.97;4.27;;;;;;;;;;5057333;28;20464;-83
2022/06/22 01:55:43;;;;;;;61.17;4.63;;;;;;;;;;5015313;28;20452;-84
2022/06/22 01:58:26;;;;;;;60.50;4.20;;;;;;;;;;5014393;28;20448;-84
2022/06/22 02:00:56;;;;;;;60.63;5.00;;;;;;;;;;5013870;28;20453;-84
2022/06/22 02:03:25;;;;;;;60.10;4.30;;;;;;;;;;5014185;28;20535;-84
2022/06/22 02:05:56;;;;;;;60.53;5.23;;;;;;;;;;5014444;28;20497;-84
2022/06/22 02:08:25;;;;;;;62.57;4.63;;;;;;;;;;5018988;28;20459;-84
2022/06/22 02:10:54;;;;;;;60.83;5.13;;;;;;;;;;5019404;28;20490;-84
2022/06/22 02:13:29;;;;;;;59.60;4.53;;;;;;;;;;5025990;28;20508;-84
2022/06/22 02:16:00;;;;;;;62.00;4.20;;;;;;;;;;5051564;28;20487;-84
2022/06/22 02:18:31;;;;;;;61.27;4.80;;;;;;;;;;5045699;28;20473;-84
2022/06/22 02:20:59;;;;;;;60.70;4.63;;;;;;;;;;5044023;28;20518;-83
2022/06/22 02:23:28;;;;;;;59.70;4.60;;;;;;;;;;5051324;28;20468;-84
2022/06/22 02:26:03;;;;;;;60.60;4.57;;;;;;;;;;5056472;28;20469;-84
2022/06/22 02:28:30;;;;;;;60.20;4.17;;;;;;;;;;5056522;28;20451;-84
2022/06/22 02:30:59;;;;;;;61.47;4.67;;;;;;;;;;5057047;28;20548;-84
2022/06/22 02:33:27;;;;;;;62.03;4.30;;;;;;;;;;5057643;28;20427;-84
2022/06/22 02:35:55;;;;;;;61.87;4.40;;;;;;;;;;5057566;28;20437;-84
2022/06/22 02:38:22;;;;;;;61.10;4.60;;;;;;;;;;5057278;28;20465;-84
2022/06/22 02:46:25;;;;;;;60.57;4.80;;;;;;;;;;5055505;28;20421;-84
2022/06/22 02:48:54;;;;;;;62.90;4.77;;;;;;;;;;5055681;28;20954;-84
2022/06/22 02:51:24;;;;;;;60.10;4.17;;;;;;;;;;5056350;28;20454;-84
2022/06/22 02:53:53;;;;;;;60.97;4.67;;;;;;;;;;5056691;28;20441;-84
2022/06/22 02:56:22;;;;;;;59.50;4.47;;;;;;;;;;5055689;28;21019;-83
2022/06/22 02:58:50;;;;;;;60.17;4.63;;;;;;;;;;5057060;28;20950;-84
2022/06/22 03:01:18;;;;;;;60.77;4.77;;;;;;;;;;5057087;28;20551;-84
2022/06/22 03:03:51;;;;;;;60.30;4.40;;;;;;;;;;5057316;28;20439;-84
2022/06/22 03:06:21;;;;;;;59.30;3.87;;;;;;;;;;5057820;28;20445;-84
2022/06/22 03:08:48;;;;;;;61.07;5.33;;;;;;;;;;5058141;28;20469;-83
2022/06/22 03:11:16;;;;;;;60.97;4.67;;;;;;;;;;5059736;28;20479;-84
2022/06/22 03:13:48;;;;;;;60.57;4.97;;;;;;;;;;5057872;28;21018;-84
2022/06/22 03:16:20;;;;;;;62.07;4.73;;;;;;;;;;5058673;28;20437;-84
2022/06/22 03:18:50;;;;;;;59.50;4.13;;;;;;;;;;5058619;28;20447;-84
2022/06/22 03:21:18;;;;;;;64.13;6.00;;;;;;;;;;5059067;28;20456;-84
2022/06/22 03:23:49;;;;;;;60.30;4.40;;;;;;;;;;5057942;28;20484;-83
2022/06/22 03:26:19;;;;;;;61.60;5.23;;;;;;;;;;5059175;28;20440;-84
2022/06/22 03:28:49;;;;;;;60.47;4.90;;;;;;;;;;5056635;28;20542;-84
2022/06/22 03:31:20;;;;;;;68.50;5.77;;;;;;;;;;5059713;28;20964;-84
2022/06/22 03:33:50;;;;;;;59.60;4.60;;;;;;;;;;5058776;28;20938;-84
2022/06/22 03:36:19;;;;;;;60.07;4.17;;;;;;;;;;5057621;28;20430;-84
2022/06/22 03:38:50;;;;;;;60.80;4.73;;;;;;;;;;5057296;28;20504;-84
2022/06/22 03:41:18;;;;;;;60.63;4.57;;;;;;;;;;5058505;28;20469;-83
2022/06/22 03:43:47;;;;;;;61.93;4.83;;;;;;;;;;5056898;28;20466;-84
2022/06/22 03:46:18;;;;;;;60.97;4.77;;;;;;;;;;5057179;28;20446;-84
2022/06/22 03:48:47;;;;;;;60.87;5.23;;;;;;;;;;5056752;28;20439;-84
2022/06/22 03:51:20;;;;;;;62.43;4.77;;;;;;;;;;5062712;28;20454;-84
2022/06/22 03:53:50;;;;;;;60.20;5.60;;;;;;;;;;5059704;28;20903;-84
2022/06/22 03:56:19;;;;;;;61.10;4.50;;;;;;;;;;5058407;28;20909;-84
2022/06/22 03:58:47;;;;;;;60.50;4.80;;;;;;;;;;5056835;28;20510;-84
2022/06/22 04:01:15;;;;;;;61.67;4.50;;;;;;;;;;5057923;28;20891;-84
2022/06/22 04:03:43;;;;;;;61.10;4.90;;;;;;;;;;5059034;28;20450;-84
2022/06/22 04:06:17;;;;;;;60.47;4.60;;;;;;;;;;5057997;28;20493;-84
2022/06/22 04:08:45;;;;;;;60.60;4.57;;;;;;;;;;5057323;28;20423;-85
2022/06/22 04:11:17;;;;;;;60.80;5.20;;;;;;;;;;5057469;28;21009;-84
2022/06/22 04:13:46;;;;;;;62.77;5.10;;;;;;;;;;5057829;28;21004;-84
2022/06/22 04:16:17;;;;;;;60.30;4.10;;;;;;;;;;5057659;28;20477;-84
2022/06/22 04:18:47;;;;;;;61.70;4.67;;;;;;;;;;5056670;28;20548;-84
2022/06/22 04:21:19;;;;;;;60.57;4.67;;;;;;;;;;5057889;28;20475;-84
2022/06/22 04:23:50;;;;;;;60.10;4.70;;;;;;;;;;5058641;28;20442;-84
2022/06/22 04:26:21;;;;;;;61.07;4.60;;;;;;;;;;5058825;28;20423;-83
2022/06/22 04:28:50;;;;;;;61.07;5.07;;;;;;;;;;5058021;28;20451;-84
2022/06/22 04:31:19;;;;;;;60.70;4.80;;;;;;;;;;5055693;28;20468;-84
2022/06/22 04:33:47;;;;;;;60.33;4.80;;;;;;;;;;5058648;28;20441;-83
2022/06/22 04:36:16;;;;;;;60.20;4.87;;;;;;;;;;5058007;28;20442;-84
2022/06/22 04:38:46;;;;;;;61.30;5.00;;;;;;;;;;5058132;28;20483;-84
2022/06/22 04:41:20;;;;;;;60.67;4.47;;;;;;;;;;5057446;28;20471;-83
2022/06/22 04:43:48;;;;;;;61.47;4.70;;;;;;;;;;5057837;28;20479;-84
2022/06/22 04:46:18;;;;;;;61.30;4.90;;;;;;;;;;5057218;28;20454;-84
2022/06/22 04:48:47;;;;;;;62.10;5.77;;;;;;;;;;5057040;28;20853;-84
2022/06/22 04:51:15;;;;;;;61.17;4.47;;;;;;;;;;5056630;28;20479;-84
2022/06/22 04:53:44;;;;;;;60.47;4.40;;;;;;;;;;5056681;28;20441;-84
2022/06/22 04:56:13;;;;;;;59.27;4.33;;;;;;;;;;5057135;28;20440;-85
2022/06/22 04:58:44;;;;;;;60.20;4.67;;;;;;;;;;5055836;28;20540;-85
2022/06/22 05:01:15;;;;;;;60.23;4.90;;;;;;;;;;5056050;28;20476;-85
2022/06/22 05:03:42;;;;;;;60.97;4.50;;;;;;;;;;5054959;28;20868;-84
2022/06/22 05:06:16;;;;;;;60.67;4.53;;;;;;;;;;5055868;28;20481;-84
2022/06/22 05:08:46;;;;;;;59.87;4.73;;;;;;;;;;5055451;28;20497;-83
2022/06/22 05:11:16;;;;;;;60.20;4.40;;;;;;;;;;5054794;28;20460;-84
2022/06/22 05:13:47;;;;;;;60.67;4.70;;;;;;;;;;5055059;28;20460;-84
2022/06/22 05:16:16;;;;;;;61.67;5.40;;;;;;;;;;5055412;28;20421;-84
2022/06/22 05:18:44;;;;;;;61.50;5.43;;;;;;;;;;5054985;28;20500;-83
2022/06/22 05:21:14;;;;;;;61.33;5.00;;;;;;;;;;5055413;28;20464;-84
2022/06/22 05:23:42;;;;;;;62.13;5.07;;;;;;;;;;5054936;28;20928;-85
2022/06/22 05:26:10;;;;;;;60.80;4.40;;;;;;;;;;5053881;28;20498;-84
2022/06/22 05:28:39;;;;;;;61.10;4.97;;;;;;;;;;5054431;28;20931;-83
2022/06/22 05:31:10;;;;;;;62.40;4.93;;;;;;;;;;5056236;28;20460;-82
2022/06/22 05:33:43;;;;;;;60.07;4.70;;;;;;;;;;5055875;28;20507;-82
2022/06/22 05:36:12;;;;;;;61.77;5.47;;;;;;;;;;5053410;28;20456;-82
2022/06/22 05:38:41;;;;;;;62.53;5.13;;;;;;;;;;5055552;28;20533;-83
2022/06/22 05:41:27;;;;;;;62.00;5.20;;;;;;;;;;5054881;28;20525;-84
2022/06/22 05:43:57;;;;;;;64.67;4.77;;;;;;;;;;5054510;28;20789;-85
2022/06/22 05:46:26;;;;;;;60.37;4.53;;;;;;;;;;5055740;28;20433;-85
2022/06/22 05:48:56;;;;;;;61.87;4.70;;;;;;;;;;5054596;28;20899;-86
2022/06/22 05:51:26;;;;;;;61.50;5.13;;;;;;;;;;5055707;28;21178;-85
2022/06/22 05:53:55;;;;;;;61.77;5.77;;;;;;;;;;5055505;28;20482;-85
2022/06/22 05:56:24;;;;;;;62.77;5.50;;;;;;;;;;5055388;28;20442;-85
2022/06/22 05:58:54;;;;;;;63.57;5.43;;;;;;;;;;5053751;28;20526;-85
2022/06/22 06:01:25;;;;;;;60.07;5.10;;;;;;;;;;5054468;28;20543;-85
2022/06/22 06:03:58;;;;;;;61.30;5.10;;;;;;;;;;5054913;28;20452;-85
2022/06/22 06:06:28;;;;;;;61.30;5.13;;;;;;;;;;5052673;28;20594;-87
2022/06/22 06:09:06;;;;;;;60.40;5.30;;;;;;;;;;5053551;28;20440;-85
2022/06/22 06:11:35;;;;;;;61.47;5.50;;;;;;;;;;5053969;28;20482;-85
2022/06/22 06:14:03;;;;;;;60.50;4.80;;;;;;;;;;5054572;28;20437;-85
2022/06/22 06:16:43;;;;;;;62.73;6.00;;;;;;;;;;5053361;28;20849;-86
2022/06/22 06:19:14;;;;;;;64.43;4.83;;;;;;;;;;5052122;28;20464;-85
2022/06/22 06:21:41;;;;;;;61.50;5.60;;;;;;;;;;5053424;28;20472;-85
2022/06/22 06:24:13;;;;;;;61.37;4.80;;;;;;;;;;5053451;28;21005;-85
2022/06/22 06:29:30;;;;;;;61.20;5.43;;;;;;;;;;5054043;28;20582;-86
2022/06/22 06:32:05;;;;;;;61.30;5.20;;;;;;;;;;5055031;28;20518;-85
2022/06/22 06:34:36;;;;;;;62.50;5.87;;;;;;;;;;5054391;28;20436;-84
2022/06/22 06:37:07;;;;;;;62.10;5.00;;;;;;;;;;5052163;28;20421;-85
2022/06/22 06:39:37;;;;;;;60.50;5.30;;;;;;;;;;5049796;28;20448;-86
2022/06/22 06:42:08;;;;;;;60.90;5.10;;;;;;;;;;5051699;28;20457;-85
2022/06/22 06:44:39;;;;;;;62.80;5.63;;;;;;;;;;5053397;28;20472;-84
2022/06/22 06:47:22;;;;;;;61.47;5.57;;;;;;;;;;5054551;28;20470;-85
2022/06/22 06:49:53;;;;;;;61.17;5.60;;;;;;;;;;5053053;28;20765;-85
2022/06/22 06:52:26;;;;;;;61.57;5.73;;;;;;;;;;5051986;28;20447;-84
2022/06/22 06:54:58;;;;;;;59.77;4.50;;;;;;;;;;5055707;28;20512;-85
2022/06/22 06:57:32;;;;;;;61.47;5.03;;;;;;;;;;5064877;28;20405;-87
2022/06/22 07:00:01;;;;;;;60.97;5.67;;;;;;;;;;5071109;28;20421;-85
2022/06/22 07:02:31;;;;;;;64.13;5.87;;;;;;;;;;5069157;28;20440;-85
2022/06/22 07:05:01;;;;;;;61.23;5.33;;;;;;;;;;5067178;28;20471;-84
2022/06/22 07:07:32;;;;;;;62.40;5.90;;;;;;;;;;5054804;28;20977;-84
2022/06/22 07:10:01;;;;;;;60.80;5.10;;;;;;;;;;5054822;28;20433;-84
2022/06/22 07:12:32;;;;;;;63.70;5.30;;;;;;;;;;5053312;28;20467;-85
2022/06/22 07:15:02;;;;;;;61.03;5.43;;;;;;;;;;5054550;28;20456;-85
2022/06/22 07:17:31;;;;;;;68.10;6.13;;;;;;;;;;5054327;28;20444;-85
2022/06/22 07:20:01;;;;;;;62.67;5.70;;;;;;;;;;5054335;28;20468;-86
2022/06/22 07:22:32;;;;;;;62.57;5.87;;;;;;;;;;5054014;28;20877;-85
2022/06/22 07:25:02;;;;;;;62.30;6.57;;;;;;;;;;5054697;28;20783;-85
2022/06/22 07:27:34;;;;;;;62.40;5.90;;;;;;;;;;5053986;28;20904;-85
2022/06/22 07:30:03;;;;;;;62.50;6.00;;;;;;;;;;5053996;28;20506;-86
2022/06/22 07:32:38;;;;;;;61.67;5.97;;;;;;;;;;5053824;28;20456;-85
2022/06/22 07:35:12;;;;;;;61.80;6.10;;;;;;;;;;5054141;28;20787;-85
2022/06/22 07:37:41;;;;;;;62.20;5.90;;;;;;;;;;5054106;28;20541;-85
2022/06/22 07:40:13;;;;;;;65.33;6.20;;;;;;;;;;5053802;28;20522;-85
2022/06/22 07:42:40;;;;;;;61.47;6.40;;;;;;;;;;5052276;28;20457;-84
2022/06/22 07:45:08;;;;;;;65.23;6.30;;;;;;;;;;5053944;28;20509;-84
2022/06/22 07:47:38;;;;;;;62.37;6.97;;;;;;;;;;5053357;28;20860;-84
2022/06/22 07:50:11;;;;;;;62.83;6.73;;;;;;;;;;5053673;28;20468;-84
2022/06/22 07:52:41;;;;;;;61.60;6.23;;;;;;;;;;5053433;28;20514;-84
2022/06/22 07:55:16;;;;;;;62.97;6.03;;;;;;;;;;5053695;28;20452;-84
2022/06/22 07:57:47;;;;;;;65.07;6.57;;;;;;;;;;5053146;28;20452;-84
2022/06/22 08:00:16;;;;;;;62.07;5.97;;;;;;;;;;5053496;28;20547;-83
2022/06/22 08:02:50;;;;;;;61.97;6.60;;;;;;;;;;5053306;28;20440;-83
2022/06/22 08:05:20;;;;;;;62.60;7.07;;;;;;;;;;5053602;28;20840;-85
2022/06/22 08:07:51;;;;;;;62.83;6.33;;;;;;;;;;5053254;28;20433;-85
2022/06/22 08:10:21;;;;;;;62.30;6.80;;;;;;;;;;5052882;28;20452;-85
2022/06/22 08:12:55;;;;;;;62.23;6.63;;;;;;;;;;5053294;28;20435;-85
2022/06/22 08:15:23;;;;;;;63.03;7.80;;;;;;;;;;5052182;28;20440;-86
2022/06/22 08:17:52;;;;;;;65.80;7.23;;;;;;;;;;5052963;28;20530;-85
2022/06/22 08:20:22;;;;;;;65.53;7.00;;;;;;;;;;5053311;28;20617;-85
2022/06/22 08:22:50;;;;;;;65.80;7.87;;;;;;;;;;5054257;28;21038;-85
2022/06/22 08:25:20;;;;;;;63.67;7.10;;;;;;;;;;5061647;28;20822;-85
2022/06/22 08:27:48;;;;;;;61.37;6.60;;;;;;;;;;5053586;28;20444;-86
2022/06/22 08:30:16;;;;;;;62.97;7.07;;;;;;;;;;5053153;28;20464;-85
2022/06/22 08:32:46;;;;;;;62.07;6.70;;;;;;;;;;5052950;28;20785;-85
2022/06/22 08:35:16;;;;;;;63.03;6.80;;;;;;;;;;5053106;28;20448;-85
2022/06/22 08:37:48;;;;;;;62.57;7.17;;;;;;;;;;5052782;28;20814;-85
2022/06/22 08:40:20;;;;;;;61.97;6.63;;;;;;;;;;5052972;28;20464;-85
2022/06/22 08:42:52;;;;;;;61.17;6.23;;;;;;;;;;5052631;28;20437;-85
2022/06/22 08:45:25;;;;;;;63.50;7.00;;;;;;;;;;5051431;28;20548;-86
2022/06/22 08:48:23;;;;;;;62.30;6.60;;;;;;;;;;5052742;28;20428;-84
2022/06/22 08:51:11;;;;;;;62.80;6.67;;;;;;;;;;5010482;28;20466;-85
2022/06/22 08:53:47;;;;;;;62.53;6.50;;;;;;;;;;5043255;28;20444;-84
2022/06/22 08:56:32;;;;;;;65.57;7.60;;;;;;;;;;5053049;28;20455;-86
2022/06/22 08:59:11;;;;;;;61.80;6.50;;;;;;;;;;5052466;28;20830;-86
2022/06/22 09:01:42;;;;;;;63.43;7.50;;;;;;;;;;5052790;28;20510;-86
2022/06/22 09:04:17;;;;;;;63.80;6.97;;;;;;;;;;5052254;28;20448;-85
2022/06/22 09:06:58;;;;;;;61.97;6.17;;;;;;;;;;5052915;28;20425;-85
2022/06/22 09:09:52;;;;;;;64.23;6.97;;;;;;;;;;5052417;28;20843;-85
2022/06/22 09:12:26;;;;;;;61.07;5.97;;;;;;;;;;5028217;28;20490;-85
2022/06/22 09:14:59;;;;;;;63.60;6.60;;;;;;;;;;5052824;28;20931;-86
2022/06/22 09:17:37;;;;;;;63.23;7.67;;;;;;;;;;5051500;28;20448;-85
2022/06/22 09:20:17;;;;;;;61.07;6.20;;;;;;;;;;5052776;28;20488;-85
2022/06/22 09:22:51;;;;;;;62.80;6.57;;;;;;;;;;5052355;28;20486;-85
2022/06/22 09:25:26;;;;;;;63.20;6.97;;;;;;;;;;5052144;28;20448;-83
2022/06/22 09:28:00;;;;;;;61.80;6.27;;;;;;;;;;5052203;28;20443;-84
2022/06/22 09:30:35;;;;;;;63.70;6.70;;;;;;;;;;5051968;28;20544;-85
2022/06/22 09:33:23;;;;;;;65.90;5.90;;;;;;;;;;5052282;28;21155;-84
2022/06/22 09:36:05;;;;;;;64.93;7.33;;;;;;;;;;5052589;28;20433;-83
2022/06/22 09:38:38;;;;;;;64.37;7.07;;;;;;;;;;5052699;28;20915;-83
2022/06/22 09:41:09;;;;;;;62.07;6.60;;;;;;;;;;5052878;28;21036;-83
2022/06/22 09:43:58;;;;;;;61.60;6.50;;;;;;;;;;5051774;28;20428;-83
2022/06/22 09:46:53;;;;;;;60.77;5.40;;;;;;;;;;5052191;28;20520;-83
2022/06/22 09:49:38;;;;;;;60.90;5.47;;;;;;;;;;5014398;28;20452;-83
2022/06/22 09:52:27;;;;;;;61.50;6.10;;;;;;;;;;5051660;28;20526;-84
2022/06/22 09:58:11;;;;;;;66.73;6.63;;;;;;;;;;5051897;28;20878;-83
2022/06/22 10:00:46;;;;;;;65.87;6.73;;;;;;;;;;5026107;28;20476;-83
2022/06/22 10:03:31;;;;;;;63.40;6.93;;;;;;;;;;5051725;28;20421;-82
2022/06/22 10:06:17;;;;;;;64.47;6.97;;;;;;;;;;5051637;28;20562;-83
2022/06/22 10:08:53;;;;;;;64.20;6.67;;;;;;;;;;5053595;28;20779;-82
2022/06/22 10:11:25;;;;;;;61.57;6.10;;;;;;;;;;5053627;28;20498;-83
2022/06/22 10:14:14;;;;;;;62.47;6.00;;;;;;;;;;5056342;28;20449;-82
2022/06/22 10:16:47;;;;;;;62.30;6.10;;;;;;;;;;5053680;28;20424;-84
2022/06/22 10:19:29;;;;;;;66.73;6.40;;;;;;;;;;5053084;28;20484;-83
2022/06/22 10:22:04;;;;;;;60.93;5.90;;;;;;;;;;5052438;28;20471;-82
2022/06/22 10:24:42;;;;;;;62.57;6.47;;;;;;;;;;5053675;28;20923;-83
2022/06/22 10:27:21;;;;;;;62.50;6.10;;;;;;;;;;5052167;28;20433;-84
2022/06/22 10:29:56;;;;;;;66.70;7.00;;;;;;;;;;5054403;28;20443;-83
2022/06/22 10:32:35;;;;;;;66.70;6.13;;;;;;;;;;5055196;28;20429;-83
2022/06/22 10:35:05;;;;;;;64.47;7.70;;;;;;;;;;5055411;28;20517;-84
2022/06/22 10:37:44;;;;;;;64.10;7.20;;;;;;;;;;5055363;28;20943;-81
2022/06/22 10:46:02;;;;;;;65.10;6.00;;;;;;;;;;5054813;28;20516;-82
2022/06/22 10:48:47;;;;;;;64.87;7.40;;;;;;;;;;5055443;28;20494;-83
2022/06/22 10:51:21;;;;;;;61.47;6.67;;;;;;;;;;5055003;28;20471;-81
2022/06/22 10:54:13;;;;;;;65.87;6.37;;;;;;;;;;5053148;28;20852;-81
2022/06/22 10:56:51;;;;;;;62.10;6.60;;;;;;;;;;5055028;28;20425;-81
2022/06/22 10:59:26;;;;;;;61.50;5.87;;;;;;;;;;5054686;28;20476;-82
2022/06/22 11:02:01;;;;;;;62.63;6.20;;;;;;;;;;5055028;28;20448;-83
2022/06/22 11:04:45;;;;;;;60.50;5.57;;;;;;;;;;5055191;28;20838;-82
2022/06/22 11:07:36;;;;;;;62.20;7.03;;;;;;;;;;5059662;28;20463;-81
2022/06/22 11:10:22;;;;;;;63.60;6.80;;;;;;;;;;5048895;28;20468;-81
2022/06/22 11:12:54;;;;;;;65.07;7.10;;;;;;;;;;5061212;28;20448;-83
2022/06/22 11:15:39;;;;;;;66.10;7.07;;;;;;;;;;5061000;28;20491;-80
2022/06/22 11:18:18;;;;;;;63.47;7.80;;;;;;;;;;5051065;28;20448;-81
2022/06/22 11:20:50;;;;;;;63.67;8.80;;;;;;;;;;5057398;28;20479;-84
2022/06/22 11:23:19;;;;;;;63.30;8.07;;;;;;;;;;5057310;28;20417;-82
2022/06/22 11:31:37;;;;;;;62.53;6.97;;;;;;;;;;5054989;28;20458;-83
2022/06/22 11:34:21;;;;;;;64.20;7.27;;;;;;;;;;5062207;28;20412;-84
2022/06/22 11:36:56;;;;;;;63.30;7.60;;;;;;;;;;5076320;28;20450;-84
2022/06/22 11:39:38;;;;;;;63.60;8.20;;;;;;;;;;5072835;28;20484;-84
2022/06/22 11:42:11;;;;;;;62.30;6.13;;;;;;;;;;5070660;28;20873;-84
2022/06/22 11:45:50;;;;;;;62.97;6.60;;;;;;;;;;5055065;28;20982;-83
2022/06/22 11:47:43;;;;;;;62.00;6.63;;;;;;;;;;5053851;28;20451;-84
2022/06/22 11:50:17;;;;;;;62.77;7.93;;;;;;;;;;5054288;28;20480;-83
2022/06/22 11:53:03;;;;;;;62.80;6.40;;;;;;;;;;5054207;28;20821;-83
2022/06/22 11:55:33;;;;;;;60.90;5.60;;;;;;;;;;5052617;28;20792;-83
2022/06/22 11:58:15;;;;;;;61.27;5.53;;;;;;;;;;5054388;28;20791;-83
2022/06/22 12:00:48;;;;;;;63.20;6.07;;;;;;;;;;5053792;28;20480;-83
2022/06/22 12:03:34;;;;;;;64.17;7.10;;;;;;;;;;5054120;28;20471;-83
2022/06/22 12:06:14;;;;;;;62.07;6.40;;;;;;;;;;5053536;28;20444;-83
2022/06/22 12:08:47;;;;;;;62.10;6.47;;;;;;;;;;5053767;28;20490;-84
2022/06/22 12:11:17;;;;;;;61.40;5.83;;;;;;;;;;5053538;28;20472;-84
2022/06/22 12:16:46;;;;;;;61.53;6.03;;;;;;;;;;5053794;28;21003;-84
2022/06/22 12:19:18;;;;;;;62.77;6.00;;;;;;;;;;5053656;28;20477;-85
2022/06/22 12:22:02;;;;;;;61.70;6.10;;;;;;;;;;5053597;28;20560;-85
2022/06/22 12:24:35;;;;;;;66.17;6.60;;;;;;;;;;5053607;28;20437;-85
2022/06/22 12:27:08;;;;;;;62.50;7.10;;;;;;;;;;5051443;28;20455;-85
2022/06/22 12:30:02;;;;;;;62.27;7.10;;;;;;;;;;5053531;28;20831;-85
2022/06/22 12:32:36;;;;;;;61.73;6.43;;;;;;;;;;5029345;28;20453;-85
2022/06/22 12:35:05;;;;;;;62.00;5.93;;;;;;;;;;5053259;28;20487;-84
2022/06/22 12:37:37;;;;;;;63.83;6.47;;;;;;;;;;5053171;28;20470;-84
2022/06/22 12:40:06;;;;;;;61.43;6.10;;;;;;;;;;5053216;28;20511;-85
2022/06/22 12:42:50;;;;;;;61.17;6.17;;;;;;;;;;5053494;28;20788;-86
2022/06/22 12:45:32;;;;;;;61.87;6.00;;;;;;;;;;5053217;28;20417;-86
2022/06/22 12:48:25;;;;;;;63.90;6.83;;;;;;;;;;5050808;28;20452;-85
2022/06/22 12:51:08;;;;;;;60.87;5.90;;;;;;;;;;5037552;28;20508;-86
2022/06/22 12:53:47;;;;;;;;;;;;;;;;;;;;;
2022/06/22 12:56:17;;;;;;;63.77;6.70;;;;;;;;;;5056753;28;20531;-87
2022/06/22 12:58:56;;;;;;;65.17;7.10;;;;;;;;;;5060150;28;20535;-86
2022/06/22 13:01:24;;;;;;;61.20;6.00;;;;;;;;;;5053197;28;20456;-86
2022/06/22 13:03:57;;;;;;;62.77;6.13;;;;;;;;;;5053009;28;20437;-86
2022/06/22 13:06:33;;;;;;;63.60;6.93;;;;;;;;;;5052100;28;20457;-87
2022/06/22 13:09:01;;;;;;;62.67;7.07;;;;;;;;;;5052424;28;20436;-87
2022/06/22 13:11:30;;;;;;;65.80;7.23;;;;;;;;;;5052355;28;21002;-87
2022/06/22 13:14:04;;;;;;;64.33;6.90;;;;;;;;;;5052618;28;20512;-87
2022/06/22 13:16:33;;;;;;;62.60;6.33;;;;;;;;;;5052305;28;20873;-87
2022/06/22 13:19:04;;;;;;;66.60;8.40;;;;;;;;;;5052346;28;20936;-87
2022/06/22 13:21:35;;;;;;;61.20;6.40;;;;;;;;;;5051997;28;20999;-86
2022/06/22 13:24:08;;;;;;;63.57;6.50;;;;;;;;;;5053240;28;20440;-86
2022/06/22 13:26:43;;;;;;;62.67;6.53;;;;;;;;;;5052779;28;20460;-87
2022/06/22 13:29:15;;;;;;;63.03;7.10;;;;;;;;;;5051728;28;20452;-86
2022/06/22 13:31:44;;;;;;;63.77;7.80;;;;;;;;;;5052031;28;20818;-87
2022/06/22 13:34:16;;;;;;;64.50;6.97;;;;;;;;;;5052291;28;20437;-87
2022/06/22 13:36:48;;;;;;;64.77;7.97;;;;;;;;;;5052210;28;20421;-86
2022/06/22 13:39:21;;;;;;;63.13;7.33;;;;;;;;;;5052276;28;20829;-86
2022/06/22 13:42:06;;;;;;;62.73;7.40;;;;;;;;;;5052582;28;20475;-86
2022/06/22 13:44:42;;;;;;;63.77;7.40;;;;;;;;;;5052553;28;20843;-85
2022/06/22 13:47:23;;;;;;;64.00;8.70;;;;;;;;;;5051809;28;20482;-86
2022/06/22 13:50:14;;;;;;;63.00;7.40;;;;;;;;;;5052073;28;20452;-87
2022/06/22 13:52:44;;;;;;;62.90;7.30;;;;;;;;;;5052275;28;20797;-87
2022/06/22 13:55:20;;;;;;;63.70;7.10;;;;;;;;;;5052367;28;20414;-87
2022/06/22 13:57:52;;;;;;;61.47;6.63;;;;;;;;;;5051733;28;20417;-87
2022/06/22 14:00:25;;;;;;;64.70;8.10;;;;;;;;;;5051220;28;21081;-87
2022/06/22 14:02:58;;;;;;;64.37;6.90;;;;;;;;;;5053854;28;20457;-87
2022/06/22 14:05:28;;;;;;;63.57;7.40;;;;;;;;;;5056240;28;20440;-87
2022/06/22 14:08:06;;;;;;;65.87;7.10;;;;;;;;;;5055822;28;20518;-86
2022/06/22 14:10:36;;;;;;;62.10;6.27;;;;;;;;;;5055850;28;20464;-86
2022/06/22 14:13:11;;;;;;;61.87;6.40;;;;;;;;;;5055679;28;20429;-86
2022/06/22 14:15:43;;;;;;;66.00;6.47;;;;;;;;;;5055824;28;20440;-86
2022/06/22 14:18:15;;;;;;;63.10;6.50;;;;;;;;;;5055664;28;20421;-86
2022/06/22 14:20:45;;;;;;;66.03;7.10;;;;;;;;;;5055625;28;20567;-85
2022/06/22 14:23:19;;;;;;;63.53;6.50;;;;;;;;;;5056084;28;20499;-84
2022/06/22 14:25:52;;;;;;;70.00;7.33;;;;;;;;;;5055500;28;20447;-86
2022/06/22 14:28:24;;;;;;;61.67;5.90;;;;;;;;;;5055380;28;20445;-86
2022/06/22 14:30:54;;;;;;;66.77;7.40;;;;;;;;;;5055662;28;20778;-86
2022/06/22 14:33:30;;;;;;;63.43;7.03;;;;;;;;;;5054093;28;21014;-86
2022/06/22 14:36:11;;;;;;;63.57;7.00;;;;;;;;;;5055446;28;20445;-85
2022/06/22 14:38:46;;;;;;;62.17;6.50;;;;;;;;;;5055141;28;20461;-86
2022/06/22 14:41:20;;;;;;;62.47;5.97;;;;;;;;;;5055340;28;20982;-85
2022/06/22 14:43:51;;;;;;;66.70;7.60;;;;;;;;;;5056017;28;20459;-84
2022/06/22 14:46:21;;;;;;;64.30;6.70;;;;;;;;;;5055723;28;20445;-82
2022/06/22 14:48:52;;;;;;;62.97;6.53;;;;;;;;;;5058502;28;20452;-82
2022/06/22 14:51:24;;;;;;;70.00;6.93;;;;;;;;;;5057574;28;20475;-83
2022/06/22 14:53:58;;;;;;;61.90;6.50;;;;;;;;;;5054890;28;20822;-84
2022/06/22 14:56:40;;;;;;;64.53;7.30;;;;;;;;;;5054973;28;20433;-84
2022/06/22 14:59:12;;;;;;;61.80;6.07;;;;;;;;;;5056969;28;20421;-82
2022/06/22 15:01:41;;;;;;;63.87;6.73;;;;;;;;;;5058249;28;20876;-83
2022/06/22 15:04:13;;;;;;;62.87;6.83;;;;;;;;;;5054898;28;20461;-82
2022/06/22 15:06:58;;;;;;;62.70;6.43;;;;;;;;;;5055268;28;20969;-83
2022/06/22 15:09:31;;;;;;;63.60;7.37;;;;;;;;;;5050575;28;20451;-82
2022/06/22 15:14:51;;;;;;;64.83;6.97;;;;;;;;;;5054484;28;20408;-84
2022/06/22 15:17:21;;;;;;;66.70;7.30;;;;;;;;;;5058075;28;20951;-83
2022/06/22 15:19:52;;;;;;;62.03;6.87;;;;;;;;;;5056998;28;20486;-82
2022/06/22 15:22:20;;;;;;;63.03;7.47;;;;;;;;;;5057917;28;20412;-83
2022/06/22 15:24:55;;;;;;;65.20;6.97;;;;;;;;;;5054587;28;20980;-83
2022/06/22 15:27:23;;;;;;;63.07;7.80;;;;;;;;;;5056138;28;20439;-83
2022/06/22 15:29:53;;;;;;;65.27;8.17;;;;;;;;;;5054923;28;20436;-84
2022/06/22 15:32:21;;;;;;;68.43;8.80;;;;;;;;;;5057919;28;20447;-82
2022/06/22 15:34:50;;;;;;;67.80;7.77;;;;;;;;;;5056319;28;20436;-83